createdAt,value
2023-05-02T00:00:40.111Z,41.26
2023-05-02T00:01:40.207Z,43.76
2023-05-02T00:02:40.238Z,52.02
2023-05-02T00:03:40.195Z,44.68
2023-05-02T00:04:40.150Z,47.53
2023-05-02T00:05:40.054Z,45.87
2023-05-02T00:06:40.154Z,52.46
2023-05-02T00:07:40.073Z,47.50
2023-05-02T00:08:40.072Z,51.32
2023-05-02T00:09:40.050Z,41.79
2023-05-02T00:10:40.012Z,46.95
2023-05-02T00:11:40.018Z,46.62
2023-05-02T00:12:40.023Z,52.00
2023-05-02T00:13:39.987Z,47.25
2023-05-02T00:14:39.968Z,48.17
2023-05-02T00:15:39.980Z,47.13
2023-05-02T00:16:39.979Z,53.27
2023-05-02T00:17:40.042Z,52.25
2023-05-02T00:18:39.936Z,44.56
2023-05-02T00:19:39.924Z,40.44
2023-05-02T00:20:39.900Z,40.39
2023-05-02T00:21:39.890Z,51.11
2023-05-02T00:22:39.884Z,47.26
2023-05-02T00:23:39.858Z,41.45
2023-05-02T00:24:39.875Z,46.80
2023-05-02T00:25:39.842Z,42.21
2023-05-02T00:26:39.817Z,46.39
2023-05-02T00:27:39.808Z,49.11
2023-05-02T00:28:39.815Z,56.01
2023-05-02T00:29:39.807Z,43.31
2023-05-02T00:30:39.784Z,43.69
2023-05-02T00:31:39.859Z,48.25
2023-05-02T00:32:39.801Z,58.48
2023-05-02T00:33:39.744Z,56.40
2023-05-02T00:34:39.760Z,52.62
2023-05-02T00:35:40.409Z,49.82
2023-05-02T00:36:39.725Z,47.08
2023-05-02T00:37:39.732Z,44.90
2023-05-02T00:38:39.709Z,50.91
2023-05-02T00:39:39.687Z,48.86
2023-05-02T00:40:39.663Z,48.27
2023-05-02T00:41:39.664Z,43.44
2023-05-02T00:42:39.652Z,48.44
2023-05-02T00:43:39.646Z,42.09
2023-05-02T00:44:39.622Z,51.97
2023-05-02T00:45:39.620Z,54.17
2023-05-02T00:46:39.689Z,47.43
2023-05-02T00:47:39.630Z,41.99
2023-05-02T00:48:39.586Z,47.42
2023-05-02T00:49:39.563Z,55.18
2023-05-02T00:50:39.561Z,52.11
2023-05-02T00:51:39.537Z,53.26
2023-05-02T00:52:39.539Z,49.47
2023-05-02T00:53:39.541Z,53.20
2023-05-02T00:54:39.508Z,55.64
2023-05-02T00:55:39.555Z,58.65
2023-05-02T00:56:39.466Z,53.05
2023-05-02T00:57:39.461Z,56.49
2023-05-02T00:59:11.967Z,54.88
2023-05-02T00:59:39.508Z,42.35
2023-05-02T01:00:39.461Z,40.87
2023-05-02T01:01:39.524Z,41.86
2023-05-02T01:02:39.529Z,52.57
2023-05-02T01:03:39.591Z,47.87
2023-05-02T01:04:39.413Z,49.86
2023-05-02T01:05:39.418Z,54.19
2023-05-02T01:06:39.446Z,50.02
2023-05-02T01:07:39.360Z,46.41
2023-05-02T01:08:39.346Z,45.69
2023-05-02T01:09:39.349Z,54.33
2023-05-02T01:10:39.340Z,45.82
2023-05-02T01:11:39.321Z,49.91
2023-05-02T01:12:39.311Z,57.19
2023-05-02T01:13:39.285Z,48.94
2023-05-02T01:14:39.292Z,43.84
2023-05-02T01:15:39.437Z,48.94
2023-05-02T01:16:39.326Z,57.67
2023-05-02T01:17:39.260Z,55.85
2023-05-02T01:18:39.278Z,49.05
2023-05-02T01:19:39.224Z,57.68
2023-05-02T01:20:39.230Z,58.56
2023-05-02T01:21:39.213Z,57.08
2023-05-02T01:22:39.185Z,50.68
2023-05-02T01:23:39.177Z,54.80
2023-05-02T01:24:39.172Z,51.17
2023-05-02T01:25:39.164Z,53.42
2023-05-02T01:26:39.149Z,49.25
2023-05-02T01:27:39.152Z,50.72
2023-05-02T01:28:39.117Z,52.12
2023-05-02T01:29:39.110Z,49.09
2023-05-02T01:30:39.112Z,48.54
2023-05-02T01:31:39.135Z,44.56
2023-05-02T01:32:39.102Z,53.54
2023-05-02T01:33:39.095Z,58.07
2023-05-02T01:34:39.052Z,55.54
2023-05-02T01:35:39.038Z,53.47
2023-05-02T01:36:39.048Z,52.14
2023-05-02T01:37:39.027Z,51.96
2023-05-02T01:38:39.011Z,50.83
2023-05-02T01:39:39.036Z,53.40
2023-05-02T01:40:39.003Z,58.55
2023-05-02T01:41:38.969Z,58.25
2023-05-02T01:42:38.965Z,53.31
2023-05-02T01:43:38.946Z,45.77
2023-05-02T01:44:38.945Z,51.27
2023-05-02T01:45:38.944Z,52.09
2023-05-02T01:46:38.961Z,50.72
2023-05-02T01:47:38.922Z,47.18
2023-05-02T01:48:38.906Z,48.80
2023-05-02T01:49:39.049Z,57.01
2023-05-02T01:50:38.861Z,51.66
2023-05-02T01:51:38.863Z,52.86
2023-05-02T01:52:38.849Z,51.58
2023-05-02T01:53:38.846Z,52.94
2023-05-02T01:54:38.850Z,55.73
2023-05-02T01:55:38.813Z,48.25
2023-05-02T01:56:38.815Z,45.41
2023-05-02T01:57:38.829Z,50.49
2023-05-02T01:58:38.786Z,52.53
2023-05-02T01:59:38.759Z,56.23
2023-05-02T02:00:39.027Z,55.30
2023-05-02T02:01:39.811Z,54.93
2023-05-02T02:02:38.746Z,54.91
2023-05-02T02:03:38.846Z,54.86
2023-05-02T02:04:38.760Z,49.68
2023-05-02T02:05:38.810Z,51.33
2023-05-02T02:06:38.826Z,51.12
2023-05-02T02:07:38.673Z,43.61
2023-05-02T02:08:38.678Z,53.60
2023-05-02T02:09:38.677Z,48.71
2023-05-02T02:10:38.649Z,55.79
2023-05-02T02:11:38.617Z,49.22
2023-05-02T02:12:38.625Z,50.60
2023-05-02T02:13:38.604Z,48.13
2023-05-02T02:14:38.596Z,50.23
2023-05-02T02:15:38.585Z,52.58
2023-05-02T02:16:38.583Z,56.40
2023-05-02T02:17:38.610Z,53.71
2023-05-02T02:18:38.570Z,56.97
2023-05-02T02:19:38.564Z,48.22
2023-05-02T02:20:38.554Z,49.33
2023-05-02T02:21:38.539Z,55.44
2023-05-02T02:22:38.565Z,51.67
2023-05-02T02:23:38.486Z,50.79
2023-05-02T02:24:38.489Z,53.55
2023-05-02T02:25:38.510Z,54.56
2023-05-02T02:26:38.468Z,51.25
2023-05-02T02:27:38.488Z,51.75
2023-05-02T02:28:38.436Z,51.20
2023-05-02T02:29:38.433Z,54.68
2023-05-02T02:30:38.485Z,47.87
2023-05-02T02:31:38.420Z,50.64
2023-05-02T02:32:38.421Z,48.32
2023-05-02T02:33:38.390Z,49.28
2023-05-02T02:34:38.382Z,46.80
2023-05-02T02:35:38.365Z,52.13
2023-05-02T02:36:38.344Z,49.30
2023-05-02T02:37:38.331Z,51.00
2023-05-02T02:38:38.328Z,52.23
2023-05-02T02:39:38.354Z,49.53
2023-05-02T02:40:38.305Z,47.84
2023-05-02T02:41:38.283Z,49.29
2023-05-02T02:42:38.270Z,50.70
2023-05-02T02:43:38.267Z,53.25
2023-05-02T02:44:38.273Z,51.43
2023-05-02T02:45:38.233Z,53.97
2023-05-02T02:46:38.376Z,56.53
2023-05-02T02:47:38.241Z,54.55
2023-05-02T02:48:38.208Z,51.67
2023-05-02T02:49:38.196Z,55.14
2023-05-02T02:50:38.190Z,55.87
2023-05-02T02:51:38.169Z,53.66
2023-05-02T02:52:38.163Z,50.61
2023-05-02T02:53:38.160Z,54.25
2023-05-02T02:54:38.140Z,53.29
2023-05-02T02:55:38.153Z,56.24
2023-05-02T02:56:38.124Z,54.97
2023-05-02T02:57:38.097Z,55.12
2023-05-02T02:58:38.080Z,55.31
2023-05-02T02:59:38.080Z,53.54
2023-05-02T03:00:38.084Z,56.63
2023-05-02T03:01:38.103Z,54.56
2023-05-02T03:02:38.102Z,57.43
2023-05-02T03:03:38.054Z,56.44
2023-05-02T03:04:38.019Z,54.38
2023-05-02T03:05:38.029Z,54.18
2023-05-02T03:06:38.097Z,56.75
2023-05-02T03:07:37.979Z,56.23
2023-05-02T03:08:37.962Z,58.00
2023-05-02T03:09:37.979Z,60.88
2023-05-02T03:10:37.964Z,58.41
2023-05-02T03:11:37.948Z,58.36
2023-05-02T03:12:37.925Z,57.60
2023-05-02T03:13:37.919Z,57.48
2023-05-02T03:14:37.902Z,59.01
2023-05-02T03:15:37.935Z,58.16
2023-05-02T03:16:38.240Z,58.29
2023-05-02T03:17:37.924Z,57.59
2023-05-02T03:18:37.856Z,57.68
2023-05-02T03:19:37.842Z,57.54
2023-05-02T03:20:37.850Z,60.26
2023-05-02T03:21:37.818Z,58.56
2023-05-02T03:22:37.811Z,57.80
2023-05-02T03:23:37.813Z,58.78
2023-05-02T03:24:37.789Z,59.17
2023-05-02T03:25:37.782Z,57.47
2023-05-02T03:26:37.796Z,60.20
2023-05-02T03:27:37.748Z,60.36
2023-05-02T03:28:37.748Z,59.06
2023-05-02T03:29:37.752Z,59.31
2023-05-02T03:30:37.711Z,58.50
2023-05-02T03:31:37.720Z,60.07
2023-05-02T03:32:37.771Z,59.92
2023-05-02T03:33:37.689Z,61.00
2023-05-02T03:34:37.661Z,59.91
2023-05-02T03:35:37.673Z,60.39
2023-05-02T03:36:37.659Z,62.12
2023-05-02T03:37:37.663Z,61.24
2023-05-02T03:38:37.657Z,61.18
2023-05-02T03:39:37.636Z,61.07
2023-05-02T03:40:37.594Z,60.17
2023-05-02T03:41:37.702Z,61.10
2023-05-02T03:42:37.607Z,61.27
2023-05-02T03:43:37.552Z,60.02
2023-05-02T03:44:37.560Z,61.38
2023-05-02T03:45:37.563Z,60.63
2023-05-02T03:46:37.617Z,59.15
2023-05-02T03:47:37.665Z,59.99
2023-05-02T03:48:37.529Z,60.94
2023-05-02T03:49:37.497Z,62.24
2023-05-02T03:50:37.475Z,60.67
2023-05-02T03:51:37.487Z,60.58
2023-05-02T03:52:37.477Z,60.61
2023-05-02T03:53:37.456Z,61.50
2023-05-02T03:54:37.435Z,60.89
2023-05-02T03:55:37.433Z,62.97
2023-05-02T03:56:37.421Z,62.07
2023-05-02T03:57:37.428Z,61.42
2023-05-02T03:58:37.388Z,61.51
2023-05-02T03:59:37.386Z,62.94
2023-05-02T04:00:37.382Z,59.84
2023-05-02T04:01:37.399Z,59.63
2023-05-02T04:02:37.486Z,60.41
2023-05-02T04:03:37.474Z,60.80
2023-05-02T04:04:37.443Z,60.13
2023-05-02T04:05:37.331Z,59.86
2023-05-02T04:06:37.323Z,61.45
2023-05-02T04:07:37.280Z,62.95
2023-05-02T04:08:37.271Z,59.20
2023-05-02T04:09:37.253Z,60.04
2023-05-02T04:10:37.277Z,61.74
2023-05-02T04:11:37.353Z,61.80
2023-05-02T04:12:37.234Z,61.45
2023-05-02T04:13:37.211Z,60.77
2023-05-02T04:14:37.222Z,61.61
2023-05-02T04:15:37.199Z,61.42
2023-05-02T04:16:37.232Z,60.46
2023-05-02T04:17:37.246Z,60.50
2023-05-02T04:18:37.208Z,63.47
2023-05-02T04:19:37.150Z,62.40
2023-05-02T04:20:37.131Z,62.57
2023-05-02T04:21:37.124Z,61.57
2023-05-02T04:22:37.139Z,61.55
2023-05-02T04:23:37.112Z,62.74
2023-05-02T04:24:37.096Z,62.71
2023-05-02T04:25:37.095Z,62.44
2023-05-02T04:26:37.079Z,61.17
2023-05-02T04:27:37.077Z,61.55
2023-05-02T04:28:37.067Z,61.68
2023-05-02T04:29:37.060Z,62.34
2023-05-02T04:30:37.037Z,59.69
2023-05-02T04:31:37.016Z,60.08
2023-05-02T04:32:37.062Z,60.74
2023-05-02T04:33:37.006Z,59.09
2023-05-02T04:34:37.013Z,60.66
2023-05-02T04:35:36.992Z,61.91
2023-05-02T04:36:36.974Z,61.18
2023-05-02T04:37:36.950Z,60.55
2023-05-02T04:38:36.947Z,61.91
2023-05-02T04:39:36.945Z,62.07
2023-05-02T04:40:36.942Z,61.23
2023-05-02T04:41:36.922Z,63.42
2023-05-02T04:42:36.893Z,61.95
2023-05-02T04:43:36.889Z,62.73
2023-05-02T04:44:36.883Z,62.18
2023-05-02T04:45:37.874Z,63.26
2023-05-02T04:46:36.947Z,63.18
2023-05-02T04:47:36.889Z,62.81
2023-05-02T04:48:36.834Z,61.59
2023-05-02T04:49:36.842Z,62.58
2023-05-02T04:50:37.816Z,60.85
2023-05-02T04:51:36.800Z,62.40
2023-05-02T04:52:36.793Z,62.24
2023-05-02T04:53:36.827Z,62.08
2023-05-02T04:54:36.753Z,62.96
2023-05-02T04:55:36.749Z,61.28
2023-05-02T04:56:36.772Z,63.20
2023-05-02T04:57:36.772Z,61.74
2023-05-02T04:58:36.724Z,61.61
2023-05-02T04:59:36.719Z,61.66
2023-05-02T05:00:36.712Z,60.27
2023-05-02T05:01:36.720Z,61.47
2023-05-02T05:02:36.742Z,62.62
2023-05-02T05:03:36.896Z,62.15
2023-05-02T05:04:36.649Z,62.36
2023-05-02T05:05:36.717Z,62.14
2023-05-02T05:06:36.716Z,61.77
2023-05-02T05:07:36.650Z,62.13
2023-05-02T05:08:36.629Z,62.33
2023-05-02T05:09:36.594Z,61.92
2023-05-02T05:10:36.588Z,61.35
2023-05-02T05:11:36.573Z,61.46
2023-05-02T05:12:36.577Z,63.48
2023-05-02T05:13:36.557Z,61.95
2023-05-02T05:14:36.550Z,63.32
2023-05-02T05:15:36.552Z,62.72
2023-05-02T05:16:36.584Z,65.08
2023-05-02T05:17:36.570Z,63.81
2023-05-02T05:18:36.491Z,62.54
2023-05-02T05:19:36.505Z,61.95
2023-05-02T05:20:36.472Z,61.59
2023-05-02T05:21:36.473Z,60.94
2023-05-02T05:22:36.471Z,62.58
2023-05-02T05:23:36.450Z,63.18
2023-05-02T05:24:36.429Z,62.25
2023-05-02T05:25:36.423Z,61.56
2023-05-02T05:26:36.404Z,60.66
2023-05-02T05:27:36.403Z,59.49
2023-05-02T05:28:36.400Z,63.04
2023-05-02T05:29:36.374Z,61.95
2023-05-02T05:30:36.353Z,64.28
2023-05-02T05:31:36.381Z,61.73
2023-05-02T05:32:36.393Z,62.48
2023-05-02T05:33:36.408Z,62.41
2023-05-02T05:34:36.341Z,63.20
2023-05-02T05:35:36.328Z,63.94
2023-05-02T05:36:36.311Z,63.32
2023-05-02T05:37:36.265Z,64.35
2023-05-02T05:38:36.264Z,65.66
2023-05-02T05:39:36.257Z,63.10
2023-05-02T05:40:36.263Z,63.12
2023-05-02T05:41:36.220Z,63.29
2023-05-02T05:42:36.219Z,61.77
2023-05-02T05:43:37.908Z,62.10
2023-05-02T05:44:36.192Z,63.13
2023-05-02T05:45:36.202Z,64.81
2023-05-02T05:46:36.202Z,63.04
2023-05-02T05:47:36.293Z,64.28
2023-05-02T05:48:36.169Z,63.33
2023-05-02T05:49:38.534Z,65.24
2023-05-02T05:50:36.133Z,63.09
2023-05-02T05:51:36.110Z,63.30
2023-05-02T05:52:36.137Z,62.70
2023-05-02T05:53:36.103Z,61.24
2023-05-02T05:54:36.079Z,62.82
2023-05-02T05:55:37.517Z,62.39
2023-05-02T05:56:37.065Z,62.28
2023-05-02T05:57:36.072Z,64.88
2023-05-02T05:58:36.051Z,62.78
2023-05-02T05:59:36.033Z,61.15
2023-05-02T06:00:36.017Z,60.23
2023-05-02T06:01:35.989Z,60.31
2023-05-02T06:02:36.135Z,61.04
2023-05-02T06:03:36.161Z,59.60
2023-05-02T06:04:35.991Z,63.41
2023-05-02T06:05:36.024Z,63.59
2023-05-02T06:06:36.971Z,62.08
2023-05-02T06:07:35.925Z,61.02
2023-05-02T06:08:35.927Z,60.29
2023-05-02T06:09:35.955Z,63.24
2023-05-02T06:10:35.904Z,63.70
2023-05-02T06:11:36.899Z,63.39
2023-05-02T06:12:35.887Z,63.09
2023-05-02T06:13:35.866Z,63.59
2023-05-02T06:14:35.866Z,61.69
2023-05-02T06:15:35.865Z,61.86
2023-05-02T06:16:35.878Z,61.82
2023-05-02T06:17:35.832Z,63.97
2023-05-02T06:18:35.850Z,65.06
2023-05-02T06:19:35.842Z,63.96
2023-05-02T06:20:35.781Z,63.14
2023-05-02T06:21:35.783Z,63.50
2023-05-02T06:22:35.763Z,62.24
2023-05-02T06:23:35.787Z,60.40
2023-05-02T06:24:35.760Z,61.46
2023-05-02T06:25:35.750Z,60.35
2023-05-02T06:26:35.718Z,59.90
2023-05-02T06:27:35.716Z,60.71
2023-05-02T06:28:35.720Z,62.23
2023-05-02T06:29:35.700Z,62.96
2023-05-02T06:30:35.700Z,62.54
2023-05-02T06:31:35.716Z,61.88
2023-05-02T06:32:35.708Z,63.22
2023-05-02T06:33:35.653Z,63.87
2023-05-02T06:34:35.629Z,63.42
2023-05-02T06:35:35.661Z,64.43
2023-05-02T06:36:35.619Z,63.42
2023-05-02T06:37:35.592Z,65.67
2023-05-02T06:38:36.806Z,63.28
2023-05-02T06:39:35.588Z,66.89
2023-05-02T06:40:35.586Z,63.82
2023-05-02T06:41:35.559Z,65.20
2023-05-02T06:42:35.551Z,65.15
2023-05-02T06:43:35.546Z,63.66
2023-05-02T06:44:35.539Z,63.54
2023-05-02T06:45:35.511Z,62.93
2023-05-02T06:46:35.545Z,63.47
2023-05-02T06:47:35.550Z,60.46
2023-05-02T06:48:35.485Z,63.51
2023-05-02T06:49:35.472Z,62.12
2023-05-02T06:50:35.455Z,62.91
2023-05-02T06:51:36.465Z,63.15
2023-05-02T06:52:35.439Z,64.52
2023-05-02T06:53:35.435Z,66.29
2023-05-02T06:54:35.424Z,64.90
2023-05-02T06:55:35.429Z,62.37
2023-05-02T06:56:35.430Z,62.97
2023-05-02T06:57:35.403Z,61.58
2023-05-02T06:58:35.393Z,60.47
2023-05-02T06:59:35.350Z,62.55
2023-05-02T07:00:35.406Z,64.56
2023-05-02T07:01:35.537Z,63.12
2023-05-02T07:02:35.355Z,60.42
2023-05-02T07:03:35.311Z,61.78
2023-05-02T07:04:35.315Z,66.99
2023-05-02T07:05:35.282Z,62.65
2023-05-02T07:06:35.291Z,60.23
2023-05-02T07:07:35.272Z,62.69
2023-05-02T07:08:35.251Z,62.08
2023-05-02T07:09:35.239Z,62.05
2023-05-02T07:10:35.223Z,64.39
2023-05-02T07:11:35.212Z,63.45
2023-05-02T07:12:35.195Z,61.45
2023-05-02T07:13:35.219Z,61.12
2023-05-02T07:14:35.174Z,61.07
2023-05-02T07:15:35.160Z,61.10
2023-05-02T07:16:35.226Z,63.22
2023-05-02T07:17:35.179Z,63.17
2023-05-02T07:18:35.136Z,61.97
2023-05-02T07:19:35.132Z,62.79
2023-05-02T07:20:35.109Z,62.64
2023-05-02T07:21:35.094Z,62.65
2023-05-02T07:22:35.089Z,60.72
2023-05-02T07:23:35.078Z,64.65
2023-05-02T07:24:35.090Z,60.58
2023-05-02T07:25:35.048Z,60.69
2023-05-02T07:26:35.083Z,61.12
2023-05-02T07:27:35.043Z,60.82
2023-05-02T07:28:35.029Z,62.11
2023-05-02T07:29:35.001Z,62.11
2023-05-02T07:30:35.037Z,61.39
2023-05-02T07:31:35.009Z,63.82
2023-05-02T07:32:34.997Z,63.18
2023-05-02T07:33:35.000Z,61.78
2023-05-02T07:34:34.964Z,63.00
2023-05-02T07:35:34.953Z,62.64
2023-05-02T07:36:34.940Z,62.04
2023-05-02T07:37:34.932Z,61.11
2023-05-02T07:38:34.902Z,62.57
2023-05-02T07:39:34.923Z,61.11
2023-05-02T07:40:34.922Z,60.58
2023-05-02T07:41:34.904Z,62.03
2023-05-02T07:42:34.907Z,60.62
2023-05-02T07:43:34.886Z,62.17
2023-05-02T07:44:34.862Z,60.84
2023-05-02T07:45:34.834Z,60.63
2023-05-02T07:46:34.935Z,61.76
2023-05-02T07:47:34.871Z,62.93
2023-05-02T07:48:34.848Z,61.58
2023-05-02T07:49:34.796Z,64.67
2023-05-02T07:50:34.796Z,63.48
2023-05-02T07:51:34.763Z,62.16
2023-05-02T07:52:34.790Z,62.81
2023-05-02T07:53:34.749Z,61.90
2023-05-02T07:54:34.746Z,62.67
2023-05-02T07:55:34.747Z,63.09
2023-05-02T07:56:34.745Z,63.09
2023-05-02T07:57:34.895Z,61.79
2023-05-02T07:58:34.716Z,61.38
2023-05-02T07:59:34.682Z,61.98
2023-05-02T08:00:34.662Z,62.31
2023-05-02T08:01:34.659Z,62.57
2023-05-02T08:02:34.771Z,62.69
2023-05-02T08:03:34.969Z,62.40
2023-05-02T08:04:34.650Z,63.15
2023-05-02T08:05:34.612Z,61.89
2023-05-02T08:06:34.733Z,60.51
2023-05-02T08:07:34.593Z,61.44
2023-05-02T08:08:34.595Z,61.41
2023-05-02T08:09:34.590Z,60.22
2023-05-02T08:10:34.542Z,60.97
2023-05-02T08:11:34.549Z,60.89
2023-05-02T08:12:34.541Z,61.10
2023-05-02T08:13:34.550Z,62.17
2023-05-02T08:14:34.506Z,61.17
2023-05-02T08:15:34.516Z,62.23
2023-05-02T08:16:34.618Z,61.36
2023-05-02T08:17:34.506Z,62.63
2023-05-02T08:18:34.497Z,58.93
2023-05-02T08:19:34.463Z,59.93
2023-05-02T08:20:34.507Z,62.23
2023-05-02T08:21:34.443Z,60.18
2023-05-02T08:22:34.443Z,62.85
2023-05-02T08:23:34.427Z,63.12
2023-05-02T08:24:34.423Z,59.82
2023-05-02T08:25:34.404Z,61.31
2023-05-02T08:26:34.397Z,60.95
2023-05-02T08:27:34.387Z,57.89
2023-05-02T08:28:34.388Z,59.31
2023-05-02T08:29:34.392Z,61.02
2023-05-02T08:30:34.413Z,61.03
2023-05-02T08:31:34.344Z,61.76
2023-05-02T08:32:34.469Z,61.94
2023-05-02T08:33:34.331Z,60.58
2023-05-02T08:34:34.402Z,62.80
2023-05-02T08:35:34.297Z,62.63
2023-05-02T08:36:34.288Z,62.06
2023-05-02T08:37:34.301Z,62.54
2023-05-02T08:38:34.250Z,62.56
2023-05-02T08:39:34.241Z,64.70
2023-05-02T08:40:42.373Z,63.39
2023-05-02T08:41:36.243Z,65.80
2023-05-02T08:42:34.223Z,65.50
2023-05-02T08:43:34.221Z,63.64
2023-05-02T08:44:34.190Z,61.53
2023-05-02T08:45:34.196Z,62.96
2023-05-02T08:46:34.189Z,62.71
2023-05-02T08:47:34.204Z,60.65
2023-05-02T08:48:34.155Z,64.26
2023-05-02T08:49:34.150Z,62.85
2023-05-02T08:50:34.136Z,60.94
2023-05-02T08:51:34.103Z,61.63
2023-05-02T08:52:34.105Z,60.71
2023-05-02T08:53:34.121Z,61.52
2023-05-02T08:54:34.077Z,62.83
2023-05-02T08:55:34.089Z,61.10
2023-05-02T08:56:34.075Z,62.08
2023-05-02T08:57:34.082Z,62.47
2023-05-02T08:58:34.072Z,65.50
2023-05-02T08:59:34.103Z,61.47
2023-05-02T09:00:34.007Z,61.52
2023-05-02T09:01:34.174Z,60.26
2023-05-02T09:02:34.101Z,60.97
2023-05-02T09:03:34.016Z,61.17
2023-05-02T09:04:34.060Z,61.52
2023-05-02T09:05:33.961Z,62.62
2023-05-02T09:06:34.978Z,61.42
2023-05-02T09:07:33.947Z,60.96
2023-05-02T09:08:33.933Z,61.96
2023-05-02T09:09:33.924Z,64.14
2023-05-02T09:10:33.902Z,61.59
2023-05-02T09:11:33.894Z,61.26
2023-05-02T09:12:33.876Z,63.89
2023-05-02T09:13:33.891Z,63.83
2023-05-02T09:14:33.867Z,60.12
2023-05-02T09:15:33.849Z,59.63
2023-05-02T09:16:33.861Z,61.86
2023-05-02T09:17:34.023Z,62.44
2023-05-02T09:18:33.803Z,64.58
2023-05-02T09:19:33.827Z,64.38
2023-05-02T09:20:33.799Z,63.36
2023-05-02T09:21:33.768Z,64.14
2023-05-02T09:22:33.802Z,62.25
2023-05-02T09:23:33.762Z,62.40
2023-05-02T09:24:33.750Z,62.77
2023-05-02T09:25:33.734Z,63.40
2023-05-02T09:26:33.743Z,64.48
2023-05-02T09:27:33.727Z,61.92
2023-05-02T09:28:33.704Z,61.32
2023-05-02T09:29:33.702Z,62.15
2023-05-02T09:30:33.752Z,61.16
2023-05-02T09:31:54.163Z,61.65
2023-05-02T09:32:35.733Z,62.16
2023-05-02T09:33:33.644Z,63.12
2023-05-02T09:34:33.697Z,63.78
2023-05-02T09:35:33.633Z,61.82
2023-05-02T09:36:33.635Z,62.03
2023-05-02T09:37:33.634Z,60.55
2023-05-02T09:38:33.586Z,61.90
2023-05-02T09:39:33.610Z,59.01
2023-05-02T09:40:33.580Z,60.40
2023-05-02T09:41:33.604Z,59.78
2023-05-02T09:42:33.632Z,58.87
2023-05-02T09:43:33.588Z,57.93
2023-05-02T09:44:34.098Z,63.27
2023-05-02T09:45:33.537Z,60.13
2023-05-02T09:46:33.638Z,59.68
2023-05-02T09:47:33.528Z,59.59
2023-05-02T09:48:33.505Z,61.24
2023-05-02T09:49:33.502Z,63.18
2023-05-02T09:50:34.722Z,61.38
2023-05-02T09:51:33.458Z,59.90
2023-05-02T09:52:34.472Z,61.57
2023-05-02T09:53:33.438Z,59.92
2023-05-02T09:54:33.440Z,61.81
2023-05-02T09:55:33.426Z,62.39
2023-05-02T09:56:33.408Z,61.67
2023-05-02T09:57:33.454Z,61.97
2023-05-02T09:58:33.391Z,60.67
2023-05-02T09:59:33.403Z,59.33
2023-05-02T10:00:33.381Z,60.43
2023-05-02T10:01:33.373Z,60.69
2023-05-02T10:02:33.355Z,60.81
2023-05-02T10:03:33.563Z,59.48
2023-05-02T10:04:33.428Z,63.50
2023-05-02T10:05:33.340Z,60.93
2023-05-02T10:06:33.374Z,62.52
2023-05-02T10:07:33.335Z,59.45
2023-05-02T10:08:33.339Z,59.31
2023-05-02T10:09:33.263Z,58.87
2023-05-02T10:10:33.256Z,60.40
2023-05-02T10:11:33.268Z,62.26
2023-05-02T10:12:33.259Z,58.06
2023-05-02T10:13:33.227Z,59.07
2023-05-02T10:14:33.220Z,60.08
2023-05-02T10:15:33.274Z,61.19
2023-05-02T10:16:33.337Z,58.58
2023-05-02T10:17:33.212Z,59.32
2023-05-02T10:18:33.198Z,61.34
2023-05-02T10:19:33.194Z,60.42
2023-05-02T10:20:33.180Z,58.46
2023-05-02T10:21:33.163Z,60.59
2023-05-02T10:22:33.147Z,60.18
2023-05-02T10:23:33.120Z,60.43
2023-05-02T10:24:33.138Z,60.51
2023-05-02T10:25:33.148Z,62.87
2023-05-02T10:26:33.093Z,60.87
2023-05-02T10:27:33.197Z,60.81
2023-05-02T10:28:33.075Z,60.76
2023-05-02T10:29:33.105Z,60.81
2023-05-02T10:30:33.188Z,62.08
2023-05-02T10:31:33.096Z,63.36
2023-05-02T10:32:33.120Z,61.98
2023-05-02T10:33:33.036Z,60.77
2023-05-02T10:34:34.023Z,61.94
2023-05-02T10:35:32.999Z,62.97
2023-05-02T10:36:33.004Z,63.94
2023-05-02T10:37:32.976Z,60.88
2023-05-02T10:38:32.968Z,61.93
2023-05-02T10:39:32.998Z,61.44
2023-05-02T10:40:32.955Z,59.58
2023-05-02T10:41:32.953Z,62.22
2023-05-02T10:42:32.930Z,61.28
2023-05-02T10:43:32.925Z,61.14
2023-05-02T10:44:32.907Z,58.01
2023-05-02T10:45:32.886Z,61.33
2023-05-02T10:46:33.937Z,61.82
2023-05-02T10:47:32.920Z,62.24
2023-05-02T10:48:32.897Z,59.55
2023-05-02T10:49:32.869Z,58.66
2023-05-02T10:50:32.845Z,61.09
2023-05-02T10:51:32.817Z,58.50
2023-05-02T10:52:32.819Z,59.62
2023-05-02T10:53:32.817Z,61.68
2023-05-02T10:54:32.823Z,62.55
2023-05-02T10:55:32.815Z,60.03
2023-05-02T10:56:32.781Z,62.39
2023-05-02T10:57:32.770Z,59.89
2023-05-02T10:58:32.748Z,59.53
2023-05-02T10:59:32.758Z,60.77
2023-05-02T11:00:32.798Z,61.49
2023-05-02T11:01:33.017Z,58.93
2023-05-02T11:02:32.777Z,57.43
2023-05-02T11:03:32.769Z,57.98
2023-05-02T11:04:32.704Z,59.00
2023-05-02T11:05:32.674Z,60.43
2023-05-02T11:06:32.716Z,60.79
2023-05-02T11:07:32.731Z,57.71
2023-05-02T11:08:32.644Z,59.62
2023-05-02T11:09:32.651Z,62.21
2023-05-02T11:10:32.629Z,61.56
2023-05-02T11:11:32.641Z,62.57
2023-05-02T11:12:32.603Z,61.82
2023-05-02T11:13:32.612Z,61.87
2023-05-02T11:14:32.625Z,64.67
2023-05-02T11:15:32.610Z,62.26
2023-05-02T11:16:32.607Z,62.01
2023-05-02T11:17:32.605Z,62.07
2023-05-02T11:18:32.531Z,61.98
2023-05-02T11:19:32.522Z,63.69
2023-05-02T11:20:33.548Z,64.90
2023-05-02T11:21:32.523Z,63.01
2023-05-02T11:22:32.537Z,63.85
2023-05-02T11:23:32.505Z,63.32
2023-05-02T11:24:32.494Z,63.09
2023-05-02T11:25:32.483Z,62.27
2023-05-02T11:26:32.455Z,63.70
2023-05-02T11:27:32.454Z,63.74
2023-05-02T11:28:32.443Z,62.58
2023-05-02T11:29:32.418Z,63.62
2023-05-02T11:30:32.442Z,64.32
2023-05-02T11:31:32.437Z,63.36
2023-05-02T11:32:32.473Z,63.08
2023-05-02T11:33:32.368Z,64.60
2023-05-02T11:34:32.359Z,63.32
2023-05-02T11:35:32.364Z,65.72
2023-05-02T11:36:32.368Z,63.28
2023-05-02T11:37:32.339Z,64.14
2023-05-02T11:38:32.344Z,63.68
2023-05-02T11:39:32.332Z,62.68
2023-05-02T11:40:32.316Z,62.64
2023-05-02T11:41:32.317Z,64.21
2023-05-02T11:42:32.309Z,62.66
2023-05-02T11:43:32.703Z,63.21
2023-05-02T11:44:32.252Z,64.58
2023-05-02T11:45:32.268Z,64.27
2023-05-02T11:46:32.281Z,63.87
2023-05-02T11:47:32.262Z,62.56
2023-05-02T11:48:32.230Z,64.09
2023-05-02T11:49:32.199Z,64.96
2023-05-02T11:50:32.193Z,61.86
2023-05-02T11:51:32.192Z,62.18
2023-05-02T11:52:32.188Z,61.81
2023-05-02T11:53:32.157Z,62.96
2023-05-02T11:54:32.145Z,64.34
2023-05-02T11:55:32.154Z,64.24
2023-05-02T11:56:32.130Z,61.90
2023-05-02T11:57:32.155Z,65.85
2023-05-02T11:58:32.095Z,63.08
2023-05-02T11:59:32.119Z,64.44
2023-05-02T12:00:32.110Z,62.59
2023-05-02T12:01:32.066Z,61.76
2023-05-02T12:02:32.140Z,63.72
2023-05-02T12:03:32.322Z,65.45
2023-05-02T12:04:32.035Z,62.94
2023-05-02T12:05:32.072Z,61.62
2023-05-02T12:06:32.077Z,63.28
2023-05-02T12:07:32.003Z,64.64
2023-05-02T12:08:32.028Z,61.71
2023-05-02T12:09:31.977Z,61.47
2023-05-02T12:10:31.945Z,61.36
2023-05-02T12:11:31.967Z,63.07
2023-05-02T12:12:31.957Z,62.60
2023-05-02T12:13:31.956Z,62.88
2023-05-02T12:14:31.914Z,64.06
2023-05-02T12:15:31.977Z,65.96
2023-05-02T12:16:31.978Z,63.85
2023-05-02T12:17:32.934Z,61.84
2023-05-02T12:18:31.882Z,63.16
2023-05-02T12:19:31.874Z,61.43
2023-05-02T12:20:31.855Z,61.85
2023-05-02T12:21:31.865Z,60.92
2023-05-02T12:22:31.827Z,64.64
2023-05-02T12:23:31.845Z,64.17
2023-05-02T12:24:31.833Z,64.62
2023-05-02T12:25:31.813Z,63.86
2023-05-02T12:26:31.805Z,62.92
2023-05-02T12:27:31.800Z,63.06
2023-05-02T12:28:31.786Z,62.64
2023-05-02T12:29:31.767Z,61.67
2023-05-02T12:30:31.938Z,61.95
2023-05-02T12:31:31.896Z,62.29
2023-05-02T12:32:31.776Z,59.24
2023-05-02T12:33:31.698Z,62.21
2023-05-02T12:34:31.717Z,61.14
2023-05-02T12:35:31.769Z,61.12
2023-05-02T12:36:31.670Z,63.33
2023-05-02T12:37:31.665Z,61.08
2023-05-02T12:38:31.660Z,63.41
2023-05-02T12:39:31.661Z,63.62
2023-05-02T12:40:31.648Z,62.80
2023-05-02T12:41:31.625Z,62.78
2023-05-02T12:42:31.587Z,61.24
2023-05-02T12:43:31.592Z,62.24
2023-05-02T12:44:31.611Z,61.38
2023-05-02T12:45:31.599Z,63.17
2023-05-02T12:46:31.825Z,62.06
2023-05-02T12:47:31.591Z,60.53
2023-05-02T12:48:31.550Z,63.45
2023-05-02T12:49:31.534Z,63.07
2023-05-02T12:50:31.555Z,63.70
2023-05-02T12:51:31.514Z,63.69
2023-05-02T12:52:31.511Z,61.49